createdAt,value
2018-11-26T00:02:37.109Z,33.13
2018-11-26T00:07:39.643Z,30.87
2018-11-26T00:12:42.201Z,28.33
2018-11-26T00:17:44.717Z,30.70
2018-11-26T00:22:47.247Z,27.77
2018-11-26T00:27:49.758Z,35.30
2018-11-26T00:32:52.282Z,28.70
2018-11-26T00:37:54.868Z,28.53
2018-11-26T00:42:57.437Z,31.97
2018-11-26T00:47:59.947Z,28.57
2018-11-26T00:53:02.462Z,33.33
2018-11-26T00:58:05.196Z,37.93
2018-11-26T01:03:07.740Z,33.53
2018-11-26T01:08:10.287Z,33.03
2018-11-26T01:13:12.821Z,29.60
2018-11-26T01:18:15.362Z,31.80
2018-11-26T01:23:17.964Z,31.33
2018-11-26T01:28:20.517Z,30.10
2018-11-26T01:33:23.088Z,30.37
2018-11-26T01:38:25.638Z,29.50
2018-11-26T01:43:28.169Z,36.53
2018-11-26T01:48:30.680Z,33.40
2018-11-26T01:53:33.221Z,33.13
2018-11-26T01:58:35.752Z,29.90
2018-11-26T02:03:38.297Z,32.57
2018-11-26T02:08:40.817Z,28.47
2018-11-26T02:13:43.336Z,32.03
2018-11-26T02:18:45.889Z,25.73
2018-11-26T02:23:48.468Z,28.57
2018-11-26T02:28:51.049Z,27.83
2018-11-26T02:33:54.417Z,27.27
2018-11-26T02:38:56.959Z,27.63
2018-11-26T02:43:59.492Z,21.10
2018-11-26T02:49:02.100Z,22.10
2018-11-26T02:54:04.915Z,19.00
2018-11-26T02:59:07.438Z,22.10
2018-11-26T03:04:13.926Z,22.63
2018-11-26T03:09:16.468Z,20.60
2018-11-26T03:14:18.997Z,19.47
2018-11-26T03:19:21.513Z,20.87
2018-11-26T03:24:24.074Z,18.40
2018-11-26T03:29:26.718Z,21.47
2018-11-26T03:34:29.269Z,20.47
2018-11-26T03:39:31.788Z,22.40
2018-11-26T03:44:34.287Z,41.20
2018-11-26T03:49:36.819Z,40.30
2018-11-26T03:54:39.376Z,29.90
2018-11-26T03:59:41.888Z,35.37
2018-11-26T04:04:45.336Z,22.70
2018-11-26T04:09:47.882Z,27.20
2018-11-26T04:14:50.421Z,39.93
2018-11-26T04:19:52.950Z,38.90
2018-11-26T04:24:55.472Z,36.03
2018-11-26T04:29:57.977Z,42.13
2018-11-26T04:35:00.489Z,30.67
2018-11-26T04:40:03.090Z,26.60
2018-11-26T04:45:07.248Z,29.33
2018-11-26T04:50:11.568Z,23.27
2018-11-26T04:55:14.068Z,25.77
2018-11-26T05:00:16.590Z,21.70
2018-11-26T05:05:19.097Z,21.97
2018-11-26T05:10:21.620Z,25.67
2018-11-26T05:15:24.145Z,36.93
2018-11-26T05:20:26.912Z,41.47
2018-11-26T05:25:29.425Z,39.77
2018-11-26T05:30:31.969Z,36.87
2018-11-26T05:35:34.493Z,36.13
2018-11-26T05:40:37.062Z,38.43
2018-11-26T05:45:39.658Z,38.03
2018-11-26T05:50:42.193Z,36.33
2018-11-26T05:55:44.720Z,36.80
2018-11-26T06:00:47.238Z,36.80
2018-11-26T06:05:49.776Z,37.33
2018-11-26T06:10:52.357Z,37.13
2018-11-26T06:15:54.913Z,36.37
2018-11-26T06:20:57.484Z,45.75
2018-11-26T06:26:00.032Z,36.50
2018-11-26T06:31:02.548Z,38.23
2018-11-26T06:36:05.265Z,41.23
2018-11-26T06:41:07.804Z,32.67
2018-11-26T06:46:10.372Z,27.67
2018-11-26T06:51:12.936Z,31.57
2018-11-26T06:56:15.485Z,32.20
2018-11-26T07:01:18.033Z,32.10
2018-11-26T07:06:20.553Z,29.37
2018-11-26T07:11:23.073Z,30.83
2018-11-26T07:16:25.589Z,39.23
2018-11-26T07:21:28.105Z,42.10
2018-11-26T07:26:30.622Z,36.73
2018-11-26T07:31:33.137Z,38.00
2018-11-26T07:36:35.653Z,31.60
2018-11-26T07:41:38.213Z,21.97
2018-11-26T07:46:40.749Z,26.63
2018-11-26T07:51:43.258Z,27.30
2018-11-26T07:56:45.804Z,37.30
2018-11-26T08:01:48.333Z,28.13
2018-11-26T08:06:51.140Z,25.17
2018-11-26T08:11:53.739Z,29.20
2018-11-26T08:16:56.256Z,24.03
2018-11-26T08:21:58.769Z,27.43
2018-11-26T08:27:01.284Z,24.23
2018-11-26T08:32:04.269Z,27.27
2018-11-26T08:37:12.576Z,29.63
2018-11-26T08:42:21.100Z,37.37
2018-11-26T08:47:29.289Z,32.93
2018-11-26T08:52:31.849Z,31.20
2018-11-26T08:57:34.401Z,31.03
2018-11-26T09:02:42.537Z,29.90
2018-11-26T09:07:45.061Z,41.23
2018-11-26T09:12:47.634Z,32.33
2018-11-26T09:17:50.196Z,31.77
2018-11-26T09:22:52.793Z,28.50
2018-11-26T09:27:55.387Z,29.47
2018-11-26T09:32:57.952Z,31.10
2018-11-26T09:38:00.580Z,32.23
2018-11-26T09:43:03.142Z,28.60
2018-11-26T09:48:05.772Z,26.97
2018-11-26T09:53:08.326Z,29.67
2018-11-26T09:58:10.877Z,33.47
2018-11-26T10:03:13.412Z,31.00
2018-11-26T10:08:15.924Z,26.93
2018-11-26T10:13:18.452Z,25.37
2018-11-26T10:18:21.018Z,28.50
2018-11-26T10:23:23.581Z,29.20
2018-11-26T10:28:26.341Z,27.27
2018-11-26T10:33:28.663Z,30.37
2018-11-26T10:38:31.194Z,27.70
2018-11-26T10:43:33.813Z,33.70
2018-11-26T10:48:36.377Z,32.37
2018-11-26T10:53:38.913Z,30.80
2018-11-26T10:58:41.533Z,26.23
2018-11-26T11:03:44.090Z,29.13
2018-11-26T11:08:46.688Z,24.87
2018-11-26T11:13:49.229Z,29.83
2018-11-26T11:18:51.743Z,28.90
2018-11-26T11:23:54.347Z,28.13
2018-11-26T11:28:56.907Z,25.00
2018-11-26T11:33:59.469Z,24.17
2018-11-26T11:39:02.041Z,25.57
2018-11-26T11:44:05.078Z,26.90
2018-11-26T11:49:07.635Z,33.33
2018-11-26T11:54:10.178Z,28.83
2018-11-26T11:59:12.720Z,27.40
2018-11-26T12:04:15.256Z,33.53
2018-11-26T12:09:17.784Z,31.87
2018-11-26T12:14:20.294Z,31.47
2018-11-26T12:19:22.844Z,32.10
2018-11-26T12:24:25.374Z,43.77
2018-11-26T12:29:27.915Z,32.07
2018-11-26T12:34:30.494Z,33.70
2018-11-26T12:39:33.170Z,30.03
2018-11-26T12:44:47.123Z,23.83
2018-11-26T12:49:49.858Z,24.90
2018-11-26T12:54:52.219Z,19.70
2018-11-26T12:59:54.784Z,18.30
2018-11-26T13:04:57.342Z,17.77
2018-11-26T13:09:59.878Z,16.53
2018-11-26T13:15:02.455Z,18.70
2018-11-26T13:20:10.394Z,19.63
2018-11-26T13:25:15.013Z,19.00
2018-11-26T13:30:19.969Z,14.73
2018-11-26T13:35:22.522Z,17.20
2018-11-26T13:40:25.041Z,25.50
2018-11-26T13:45:29.902Z,21.13
2018-11-26T13:50:34.015Z,18.13
2018-11-26T13:55:36.591Z,13.37
2018-11-26T14:00:39.127Z,14.87
2018-11-26T14:05:41.707Z,16.63
2018-11-26T14:10:44.255Z,16.83
2018-11-26T14:15:46.849Z,16.53
2018-11-26T14:20:49.407Z,19.10
2018-11-26T14:25:52.419Z,19.60
2018-11-26T14:30:54.955Z,22.57
2018-11-26T14:35:57.482Z,19.10
2018-11-26T14:41:00.044Z,22.07
2018-11-26T14:46:02.602Z,21.20
2018-11-26T14:51:05.216Z,21.70
2018-11-26T14:56:07.775Z,21.70
2018-11-26T15:01:10.350Z,23.93
2018-11-26T15:06:12.899Z,23.53
2018-11-26T15:11:15.467Z,22.40
2018-11-26T15:16:18.025Z,23.60
2018-11-26T15:21:20.543Z,24.90
2018-11-26T15:26:23.126Z,20.93
2018-11-26T15:31:25.711Z,18.03
2018-11-26T15:36:28.275Z,24.17
2018-11-26T15:41:30.843Z,31.37
2018-11-26T15:46:33.391Z,26.50
2018-11-26T15:51:35.947Z,29.25
2018-11-26T15:56:38.501Z,23.20
2018-11-26T16:01:41.084Z,26.23
2018-11-26T16:06:43.630Z,20.73
2018-11-26T16:11:46.166Z,26.43
2018-11-26T16:16:48.720Z,19.83
2018-11-26T16:21:51.268Z,23.80
2018-11-26T16:26:53.837Z,15.33
2018-11-26T16:31:56.407Z,16.07
2018-11-26T16:36:58.971Z,11.27
2018-11-26T16:42:01.554Z,11.23
2018-11-26T16:47:04.415Z,9.63
2018-11-26T16:52:07.111Z,12.87
2018-11-26T16:57:09.663Z,17.10
2018-11-26T17:02:12.259Z,14.43
2018-11-26T17:07:15.051Z,18.57
2018-11-26T17:12:17.655Z,15.87
2018-11-26T17:17:20.231Z,21.17
2018-11-26T17:22:22.810Z,11.87
2018-11-26T17:27:25.417Z,10.70
2018-11-26T17:32:27.992Z,14.20
2018-11-26T17:37:30.809Z,20.03
2018-11-26T17:42:33.363Z,22.80
2018-11-26T17:47:35.951Z,21.50
2018-11-26T17:52:38.573Z,16.43
2018-11-26T17:57:41.117Z,18.20
2018-11-26T18:02:44.330Z,16.47
2018-11-26T18:07:51.934Z,18.93
2018-11-26T18:12:54.503Z,17.13
2018-11-26T18:17:58.497Z,18.17
2018-11-26T18:23:01.181Z,16.60
2018-11-26T18:28:07.695Z,17.30
2018-11-26T18:33:10.313Z,23.80
2018-11-26T18:38:12.968Z,24.93
2018-11-26T18:43:15.550Z,21.63
2018-11-26T18:48:18.124Z,19.53
2018-11-26T18:53:20.682Z,20.37
2018-11-26T18:58:23.285Z,21.77
2018-11-26T19:03:25.849Z,21.93
2018-11-26T19:08:28.399Z,26.73
2018-11-26T19:13:35.033Z,25.20
2018-11-26T19:18:37.642Z,27.63
2018-11-26T19:23:40.237Z,33.83
2018-11-26T19:28:42.836Z,30.60
2018-11-26T19:33:45.393Z,26.27
2018-11-26T19:38:47.866Z,24.57
2018-11-26T19:43:50.487Z,25.30
2018-11-26T19:48:53.100Z,29.03
2018-11-26T19:53:55.760Z,24.57
2018-11-26T19:58:59.190Z,31.23
2018-11-26T20:04:15.782Z,29.70
2018-11-26T20:09:18.256Z,33.37
2018-11-26T20:14:25.687Z,34.23
2018-11-26T20:19:23.476Z,27.93
2018-11-26T20:24:26.068Z,27.23
2018-11-26T20:29:28.704Z,26.23
2018-11-26T20:34:31.318Z,25.27
2018-11-26T20:39:34.605Z,25.33
2018-11-26T20:44:37.178Z,25.07
2018-11-26T20:49:39.737Z,26.73
2018-11-26T20:54:42.290Z,27.20
2018-11-26T20:59:45.405Z,28.70
2018-11-26T21:04:47.958Z,33.57
2018-11-26T21:09:50.524Z,28.37
2018-11-26T21:14:53.052Z,28.20
2018-11-26T21:19:55.595Z,30.00
2018-11-26T21:24:58.137Z,45.50
2018-11-26T21:30:00.697Z,46.13
2018-11-26T21:35:03.303Z,39.10
2018-11-26T21:40:07.830Z,38.70
2018-11-26T21:45:15.005Z,39.20
2018-11-26T21:50:17.556Z,33.63
2018-11-26T21:55:20.150Z,27.10
2018-11-26T22:00:25.070Z,28.07
2018-11-26T22:05:27.615Z,27.53
2018-11-26T22:10:30.185Z,25.43
2018-11-26T22:15:32.732Z,29.33
2018-11-26T22:20:35.403Z,36.83
2018-11-26T22:25:37.955Z,32.17
2018-11-26T22:30:40.438Z,35.33
2018-11-26T22:35:43.104Z,33.57
2018-11-26T22:40:45.646Z,35.93
2018-11-26T22:45:48.187Z,32.60
2018-11-26T22:50:51.723Z,34.00
2018-11-26T22:55:54.270Z,31.57
2018-11-26T23:00:56.839Z,34.77
2018-11-26T23:05:59.465Z,33.20
2018-11-26T23:11:02.010Z,31.57
2018-11-26T23:16:04.698Z,39.27
2018-11-26T23:21:07.268Z,32.03
2018-11-26T23:26:09.809Z,33.60
2018-11-26T23:31:12.370Z,34.70
2018-11-26T23:36:14.908Z,33.47
2018-11-26T23:41:17.424Z,35.63
2018-11-26T23:46:20.577Z,32.20
2018-11-26T23:51:23.154Z,29.63
2018-11-26T23:56:25.713Z,34.77
